Terminal Aerodrome Forecast
Issued by NWS Upton, NY

Current Version | Previous Version | Text Only | Print | Product List | Glossary On
Versions: 1 2 3 4 5 6 7 8 9 10 11 12 13 14 15 16 17 18 19 20 21 22 23 24 25 26 27 28 29 30
000
FTUS41 KOKX 241100
TAFJFK
TAF
KJFK 241139Z 2412/2518 35011KT P6SM SCT025 BKN050
      TEMPO 2412/2413 BKN020
     FM241800 32011KT P6SM SCT050 SCT250
      TEMPO 2420/2423 18010KT
     FM250000 35009KT P6SM SCT060 SCT250=

USA.gov is the U.S. government's official web portal to all federal, state and local government web resources and services.